createdAt,value
2023-04-13T00:01:16.483Z,13.00
2023-04-13T00:03:46.192Z,14.52
2023-04-13T00:06:15.063Z,11.15
2023-04-13T00:08:45.343Z,14.02
2023-04-13T00:11:14.121Z,14.27
2023-04-13T00:13:47.750Z,11.55
2023-04-13T00:16:18.043Z,12.80
2023-04-13T00:18:47.149Z,14.38
2023-04-13T00:21:17.329Z,14.88
2023-04-13T00:23:47.444Z,11.60
2023-04-13T00:26:16.795Z,13.20
2023-04-13T00:28:47.129Z,12.52
2023-04-13T00:31:16.495Z,13.02
2023-04-13T00:33:46.719Z,12.68
2023-04-13T00:36:16.852Z,13.50
2023-04-13T00:38:46.874Z,12.27
2023-04-13T00:41:19.438Z,15.57
2023-04-13T00:43:49.485Z,16.08
2023-04-13T00:46:19.565Z,14.23
2023-04-13T00:48:48.763Z,14.05
2023-04-13T00:51:18.402Z,13.30
2023-04-13T00:53:49.806Z,13.23
2023-04-13T00:56:23.108Z,11.13
2023-04-13T00:58:56.637Z,11.57
2023-04-13T01:01:26.800Z,11.95
2023-04-13T01:03:57.335Z,11.52
2023-04-13T01:06:45.464Z,12.35
2023-04-13T01:09:31.094Z,12.63
2023-04-13T01:12:39.469Z,12.50
2023-04-13T01:15:16.472Z,14.52
2023-04-13T01:18:05.387Z,14.10
2023-04-13T01:20:45.704Z,14.48
2023-04-13T01:24:17.872Z,18.10
2023-04-13T01:27:13.269Z,18.35
2023-04-13T01:29:47.160Z,17.17
2023-04-13T01:32:18.516Z,16.63
2023-04-13T01:34:50.267Z,17.50
2023-04-13T01:37:20.895Z,19.13
2023-04-13T01:39:51.000Z,18.13
2023-04-13T01:42:21.140Z,22.58
2023-04-13T01:44:51.455Z,15.18
2023-04-13T01:47:25.954Z,16.98
2023-04-13T01:50:19.569Z,17.48
2023-04-13T01:52:55.459Z,17.20
2023-04-13T01:55:26.597Z,18.90
2023-04-13T01:58:02.127Z,15.63
2023-04-13T02:00:41.096Z,20.83
2023-04-13T02:03:13.725Z,18.77
2023-04-13T02:05:43.934Z,18.08
2023-04-13T02:08:14.545Z,17.23
2023-04-13T02:10:46.456Z,17.55
2023-04-13T02:13:16.558Z,18.25
2023-04-13T02:15:47.235Z,17.63
2023-04-13T02:18:17.632Z,18.40
2023-04-13T02:20:47.718Z,21.25
2023-04-13T02:23:18.103Z,18.23
2023-04-13T02:25:48.413Z,21.42
2023-04-13T02:28:18.902Z,18.63
2023-04-13T02:30:49.153Z,19.48
2023-04-13T02:33:21.611Z,18.95
2023-04-13T02:35:52.173Z,20.55
2023-04-13T02:38:22.258Z,18.50
2023-04-13T02:41:01.532Z,26.55
2023-04-13T02:43:31.794Z,17.98
2023-04-13T02:46:01.996Z,22.15
2023-04-13T02:48:32.344Z,18.42
2023-04-13T02:51:02.525Z,17.83
2023-04-13T02:53:32.693Z,20.02
2023-04-13T02:56:02.855Z,19.25
2023-04-13T02:58:33.006Z,19.98
2023-04-13T03:01:01.566Z,19.67
2023-04-13T03:03:30.724Z,16.17
2023-04-13T03:05:58.846Z,16.20
2023-04-13T03:08:27.485Z,20.40
2023-04-13T03:10:55.278Z,15.45
2023-04-13T03:13:23.519Z,19.77
2023-04-13T03:15:52.999Z,15.88
2023-04-13T03:18:20.388Z,13.82
2023-04-13T03:20:48.892Z,16.38
2023-04-13T03:23:17.555Z,14.93
2023-04-13T03:25:46.079Z,14.75
2023-04-13T03:28:14.193Z,15.15
2023-04-13T03:30:42.494Z,14.48
2023-04-13T03:33:11.093Z,13.85
2023-04-13T03:35:39.449Z,14.63
2023-04-13T03:38:07.934Z,11.68
2023-04-13T03:40:36.276Z,14.63
2023-04-13T03:43:04.825Z,12.43
2023-04-13T03:45:33.622Z,12.55
2023-04-13T03:48:01.622Z,14.82
2023-04-13T03:50:29.914Z,12.07
2023-04-13T03:52:58.355Z,12.15
2023-04-13T03:55:27.310Z,13.40
2023-04-13T03:57:57.640Z,10.55
2023-04-13T04:00:28.168Z,15.90
2023-04-13T04:02:58.321Z,10.90
2023-04-13T04:05:28.453Z,15.65
2023-04-13T04:07:58.581Z,13.93
2023-04-13T04:10:29.070Z,12.30
2023-04-13T04:12:59.232Z,13.95
2023-04-13T04:15:29.466Z,15.68
2023-04-13T04:18:00.503Z,10.40
2023-04-13T04:20:31.200Z,17.88
2023-04-13T04:23:01.512Z,13.55
2023-04-13T04:25:33.619Z,12.55
2023-04-13T04:28:04.636Z,13.70
2023-04-13T04:30:35.273Z,10.27
2023-04-13T04:33:05.486Z,12.95
2023-04-13T04:35:34.137Z,15.65
2023-04-13T04:38:04.551Z,14.45
2023-04-13T04:40:35.971Z,15.15
2023-04-13T04:43:06.225Z,14.95
2023-04-13T04:45:38.625Z,15.68
2023-04-13T04:48:11.933Z,16.40
2023-04-13T04:50:45.110Z,15.95
2023-04-13T04:53:15.198Z,18.52
2023-04-13T04:55:46.626Z,18.85
2023-04-13T04:58:17.114Z,18.90
2023-04-13T05:00:48.119Z,16.85
2023-04-13T05:03:18.490Z,16.02
2023-04-13T05:05:48.772Z,21.77
2023-04-13T05:08:19.027Z,17.52
2023-04-13T05:10:49.446Z,17.25
2023-04-13T05:13:19.682Z,18.65
2023-04-13T05:15:50.042Z,16.90
2023-04-13T05:18:18.641Z,18.95
2023-04-13T05:20:49.693Z,16.17
2023-04-13T05:23:18.331Z,20.48
2023-04-13T05:25:46.741Z,21.30
2023-04-13T05:28:15.190Z,19.85
2023-04-13T05:30:43.607Z,16.10
2023-04-13T05:33:12.409Z,20.42
2023-04-13T05:35:40.470Z,17.67
2023-04-13T05:38:09.473Z,18.75
2023-04-13T05:40:40.027Z,17.60
2023-04-13T05:43:10.413Z,16.90
2023-04-13T05:45:40.806Z,17.70
2023-04-13T05:48:11.013Z,13.77
2023-04-13T05:50:41.147Z,18.27
2023-04-13T05:53:11.375Z,15.88
2023-04-13T05:55:45.682Z,16.13
2023-04-13T05:58:19.337Z,16.65
2023-04-13T06:00:49.718Z,15.05
2023-04-13T06:03:20.860Z,16.25
2023-04-13T06:05:53.233Z,14.07
2023-04-13T06:08:23.949Z,15.73
2023-04-13T06:10:54.086Z,16.27
2023-04-13T06:13:24.678Z,16.95
2023-04-13T06:15:55.139Z,14.05
2023-04-13T06:18:29.766Z,16.52
2023-04-13T06:21:03.096Z,15.77
2023-04-13T06:23:33.209Z,14.63
2023-04-13T06:26:05.767Z,11.75
2023-04-13T06:28:36.908Z,14.57
2023-04-13T06:31:07.659Z,12.00
2023-04-13T06:33:35.459Z,11.63
2023-04-13T06:36:06.573Z,13.65
2023-04-13T06:38:35.260Z,12.80
2023-04-13T06:41:04.790Z,11.65
2023-04-13T06:43:32.156Z,10.55
2023-04-13T06:46:02.474Z,14.05
2023-04-13T06:48:33.277Z,10.55
2023-04-13T06:51:03.474Z,9.45
2023-04-13T06:53:33.612Z,8.75
2023-04-13T06:56:06.930Z,9.90
2023-04-13T06:58:38.020Z,8.40
2023-04-13T07:01:08.711Z,10.25
2023-04-13T07:03:39.121Z,10.00
2023-04-13T07:06:10.724Z,8.75
2023-04-13T07:08:40.849Z,10.05
2023-04-13T07:11:11.736Z,9.13
2023-04-13T07:13:45.094Z,7.80
2023-04-13T07:16:16.233Z,7.18
2023-04-13T07:18:48.175Z,7.20
2023-04-13T07:21:21.867Z,7.65
2023-04-13T07:23:51.977Z,6.47
2023-04-13T07:26:22.076Z,7.53
2023-04-13T07:28:52.228Z,9.18
2023-04-13T07:31:40.970Z,8.85
2023-04-13T07:34:12.401Z,5.80
2023-04-13T07:36:46.278Z,6.13
2023-04-13T07:39:13.921Z,6.65
2023-04-13T07:41:49.260Z,6.15
2023-04-13T07:44:19.393Z,7.40
2023-04-13T07:46:49.613Z,7.55
2023-04-13T07:49:19.797Z,9.07
2023-04-13T07:51:54.527Z,6.00
2023-04-13T07:54:24.612Z,5.50
2023-04-13T07:56:56.551Z,5.53
2023-04-13T07:59:26.736Z,5.65
2023-04-13T08:01:59.903Z,5.72
2023-04-13T08:04:30.464Z,5.07
2023-04-13T08:07:07.441Z,7.32
2023-04-13T08:09:42.475Z,5.97
2023-04-13T08:12:17.536Z,4.35
2023-04-13T08:14:47.609Z,7.40
2023-04-13T08:17:17.809Z,4.63
2023-04-13T08:19:47.959Z,3.13
2023-04-13T08:22:18.773Z,3.53
2023-04-13T08:24:48.845Z,4.43
2023-04-13T08:27:17.315Z,3.13
2023-04-13T08:29:46.735Z,6.38
2023-04-13T08:32:14.166Z,5.43
2023-04-13T08:34:42.669Z,6.20
2023-04-13T08:37:12.953Z,3.58
2023-04-13T08:39:42.390Z,3.13
2023-04-13T08:42:19.285Z,2.28
2023-04-13T08:44:57.404Z,2.45
2023-04-13T08:47:29.703Z,5.50
2023-04-13T08:50:02.831Z,3.05
2023-04-13T08:52:36.868Z,3.00
2023-04-13T08:55:07.487Z,2.00
2023-04-13T08:57:39.332Z,4.80
2023-04-13T09:00:15.641Z,2.67
2023-04-13T09:03:03.013Z,2.67
2023-04-13T09:05:41.675Z,2.75
2023-04-13T09:08:14.316Z,4.10
2023-04-13T09:10:44.641Z,2.92
2023-04-13T09:13:14.828Z,4.03
2023-04-13T09:15:47.513Z,3.17
2023-04-13T09:18:18.060Z,3.00
2023-04-13T09:21:00.662Z,4.45
2023-04-13T09:23:30.854Z,2.85
2023-04-13T09:26:09.718Z,6.47
2023-04-13T09:28:54.855Z,2.97
2023-04-13T09:31:26.307Z,7.63
2023-04-13T09:33:56.574Z,3.85
2023-04-13T09:36:29.611Z,2.00
2023-04-13T09:38:58.911Z,3.47
2023-04-13T09:41:39.301Z,1.90
2023-04-13T09:44:24.637Z,2.42
2023-04-13T09:47:06.267Z,3.17
2023-04-13T09:49:43.904Z,4.60
2023-04-13T09:52:25.234Z,5.57
2023-04-13T09:54:58.984Z,1.20
2023-04-13T09:57:32.603Z,2.53
2023-04-13T10:00:01.887Z,2.90
2023-04-13T10:02:32.554Z,3.30
2023-04-13T10:05:02.997Z,2.53
2023-04-13T10:07:37.230Z,4.07
2023-04-13T10:10:08.770Z,4.47
2023-04-13T10:12:56.561Z,4.53
2023-04-13T10:15:58.616Z,2.95
2023-04-13T10:21:55.869Z,1.77
2023-04-13T10:24:29.012Z,1.23
2023-04-13T10:27:01.951Z,3.38
2023-04-13T10:29:34.267Z,3.22
2023-04-13T10:32:05.364Z,3.78
2023-04-13T10:34:38.354Z,3.58
2023-04-13T10:37:21.902Z,3.20
2023-04-13T10:40:14.646Z,2.35
2023-04-13T10:45:28.670Z,1.20
2023-04-13T10:47:58.856Z,4.18
2023-04-13T10:50:28.017Z,2.85
2023-04-13T10:53:07.873Z,2.42
2023-04-13T10:55:38.059Z,3.72
2023-04-13T10:58:17.610Z,3.35
2023-04-13T11:00:51.047Z,3.08
2023-04-13T11:03:21.916Z,5.80
2023-04-13T11:05:59.724Z,5.32
2023-04-13T11:08:28.934Z,2.35
2023-04-13T11:10:59.121Z,2.05
2023-04-13T11:13:29.960Z,2.63
2023-04-13T11:16:07.734Z,4.55
2023-04-13T11:18:37.288Z,5.18
2023-04-13T11:21:14.397Z,1.95
2023-04-13T11:23:55.518Z,3.30
2023-04-13T11:26:34.425Z,1.80
2023-04-13T11:29:05.387Z,1.65
2023-04-13T11:31:42.476Z,2.67
2023-04-13T11:34:14.094Z,2.88
2023-04-13T11:36:49.057Z,3.35
2023-04-13T11:39:19.963Z,2.35
2023-04-13T11:41:51.211Z,4.55
2023-04-13T11:44:20.010Z,4.13
2023-04-13T11:46:53.873Z,3.03
2023-04-13T11:49:24.452Z,4.72
2023-04-13T11:51:55.629Z,2.72
2023-04-13T11:54:27.398Z,1.58
2023-04-13T11:56:56.060Z,2.60
2023-04-13T11:59:28.008Z,2.20
2023-04-13T12:02:02.922Z,2.35
2023-04-13T12:04:43.703Z,3.90
2023-04-13T12:07:16.779Z,3.60
2023-04-13T12:15:15.420Z,1.73
2023-04-13T12:17:57.753Z,2.30
2023-04-13T12:23:23.579Z,3.47
2023-04-13T12:26:41.208Z,1.70
2023-04-13T12:29:04.287Z,2.53
2023-04-13T12:31:39.954Z,3.20
2023-04-13T12:34:10.153Z,3.67
2023-04-13T12:36:40.400Z,3.17
2023-04-13T12:39:09.071Z,4.65
2023-04-13T12:41:36.167Z,4.22
2023-04-13T12:44:06.337Z,1.85
2023-04-13T12:46:37.226Z,3.17
2023-04-13T12:49:06.975Z,3.75
2023-04-13T12:51:37.155Z,3.28
2023-04-13T12:54:13.265Z,3.17
2023-04-13T12:56:42.562Z,1.80
2023-04-13T12:59:12.895Z,2.33
2023-04-13T13:01:41.059Z,3.63
2023-04-13T13:04:09.635Z,2.30
2023-04-13T13:06:38.227Z,1.90
2023-04-13T13:09:07.686Z,4.53
2023-04-13T13:11:37.870Z,2.60
2023-04-13T13:14:06.731Z,2.90
2023-04-13T13:16:38.093Z,1.38
2023-04-13T13:19:08.764Z,2.80
2023-04-13T13:21:38.926Z,2.90
2023-04-13T13:24:09.212Z,2.90
2023-04-13T13:26:58.673Z,1.40
2023-04-13T13:29:33.315Z,2.33
2023-04-13T13:32:04.518Z,4.65
2023-04-13T13:34:34.792Z,3.67
2023-04-13T13:37:03.389Z,4.18
2023-04-13T13:39:32.363Z,3.30
2023-04-13T13:42:00.043Z,3.33
2023-04-13T13:44:28.370Z,1.95
2023-04-13T13:46:56.790Z,2.28
2023-04-13T13:49:25.509Z,2.67
2023-04-13T13:51:53.666Z,3.42
2023-04-13T13:54:22.903Z,2.20
2023-04-13T13:56:50.436Z,5.38
2023-04-13T13:59:19.292Z,3.08
2023-04-13T14:01:47.394Z,1.85
2023-04-13T14:04:16.080Z,2.08
2023-04-13T14:06:44.131Z,3.13
2023-04-13T14:09:12.589Z,3.05
2023-04-13T14:11:41.074Z,3.80
2023-04-13T14:14:20.414Z,2.88
2023-04-13T14:16:52.166Z,4.82
2023-04-13T14:19:22.340Z,2.92
2023-04-13T14:21:56.705Z,1.38
2023-04-13T14:24:27.373Z,4.00
2023-04-13T14:26:55.289Z,1.63
2023-04-13T14:29:23.659Z,1.88
2023-04-13T14:31:53.011Z,2.92
2023-04-13T14:34:21.069Z,4.47
2023-04-13T14:36:51.051Z,3.15
2023-04-13T14:39:20.467Z,1.70
2023-04-13T14:41:48.790Z,1.25
2023-04-13T14:44:17.420Z,1.85
2023-04-13T14:46:45.790Z,4.82
2023-04-13T14:49:16.852Z,1.35
2023-04-13T14:51:46.978Z,3.28
2023-04-13T14:54:17.117Z,0.88
2023-04-13T14:56:48.058Z,1.20
2023-04-13T14:59:18.178Z,3.20
2023-04-13T15:01:48.795Z,1.50
2023-04-13T15:04:19.913Z,2.47
2023-04-13T15:06:53.834Z,3.75
2023-04-13T15:09:24.180Z,2.20
2023-04-13T15:11:54.363Z,1.45
2023-04-13T15:14:24.466Z,1.73
2023-04-13T15:16:54.606Z,2.80
2023-04-13T15:19:24.757Z,3.47
2023-04-13T15:21:54.856Z,3.30
2023-04-13T15:24:24.996Z,3.42
2023-04-13T15:26:55.530Z,1.65
2023-04-13T15:29:26.928Z,3.08
2023-04-13T15:32:00.354Z,3.60
2023-04-13T15:34:30.813Z,2.22
2023-04-13T15:37:00.971Z,2.95
2023-04-13T15:39:31.095Z,3.13
2023-04-13T15:42:02.422Z,2.72
2023-04-13T15:44:32.516Z,1.77
2023-04-13T15:47:03.281Z,1.10
2023-04-13T15:49:33.511Z,2.47
2023-04-13T15:52:04.154Z,1.33
2023-04-13T15:54:34.391Z,4.43
2023-04-13T15:57:04.634Z,1.58
2023-04-13T15:59:34.987Z,2.72
2023-04-13T16:02:05.198Z,3.33
2023-04-13T16:04:35.628Z,2.83
2023-04-13T16:07:13.491Z,2.47
2023-04-13T16:09:45.025Z,2.92
2023-04-13T16:12:20.286Z,2.25
2023-04-13T16:14:50.428Z,2.70
2023-04-13T16:17:31.115Z,2.72
2023-04-13T16:20:14.514Z,2.85
2023-04-13T16:22:49.248Z,3.00
2023-04-13T16:25:20.490Z,3.75
2023-04-13T16:27:50.797Z,2.95
2023-04-13T16:30:21.264Z,2.60
2023-04-13T16:32:51.430Z,1.98
2023-04-13T16:35:21.608Z,1.67
2023-04-13T16:37:51.746Z,1.92
2023-04-13T16:40:22.173Z,3.47
2023-04-13T16:42:52.293Z,3.08
2023-04-13T16:45:21.880Z,1.20
2023-04-13T16:47:50.150Z,2.35
2023-04-13T16:50:17.524Z,2.60
2023-04-13T16:52:46.156Z,1.75
2023-04-13T16:55:15.160Z,3.42
2023-04-13T16:57:48.249Z,5.28
2023-04-13T17:00:18.342Z,1.58
2023-04-13T17:02:48.685Z,2.25
2023-04-13T17:05:18.975Z,3.28
2023-04-13T17:07:49.097Z,3.08
2023-04-13T17:10:19.281Z,4.53
2023-04-13T17:12:49.491Z,6.80
2023-04-13T17:15:20.418Z,3.45
2023-04-13T17:17:50.559Z,12.95
2023-04-13T17:20:23.991Z,2.90
2023-04-13T17:22:54.725Z,2.42
2023-04-13T17:25:24.944Z,1.92
2023-04-13T17:27:55.056Z,2.17
2023-04-13T17:30:25.137Z,2.95
2023-04-13T17:32:55.330Z,3.30
2023-04-13T17:35:25.423Z,2.65
2023-04-13T17:37:55.639Z,5.22
2023-04-13T17:40:26.324Z,1.83
2023-04-13T17:42:57.207Z,4.55
2023-04-13T17:45:29.926Z,4.57
2023-04-13T17:48:00.238Z,3.85
2023-04-13T17:50:35.355Z,1.90
2023-04-13T17:53:08.460Z,2.70
2023-04-13T17:55:39.920Z,3.38
2023-04-13T17:58:12.117Z,1.50
2023-04-13T18:00:42.251Z,4.18
2023-04-13T18:03:12.971Z,3.35
2023-04-13T18:05:46.277Z,1.88
2023-04-13T18:08:14.747Z,2.50
2023-04-13T18:10:43.087Z,1.67
2023-04-13T18:13:11.553Z,2.33
2023-04-13T18:15:39.919Z,3.55
2023-04-13T18:18:08.426Z,5.05
2023-04-13T18:20:36.712Z,2.33
2023-04-13T18:23:11.210Z,5.80
2023-04-13T18:25:44.128Z,2.88
2023-04-13T18:28:17.764Z,7.63
2023-04-13T18:30:48.330Z,4.05
2023-04-13T18:33:18.492Z,5.40
2023-04-13T18:35:50.573Z,5.35
2023-04-13T18:38:24.002Z,4.57
2023-04-13T18:40:56.703Z,4.22
2023-04-13T18:43:26.803Z,2.88
2023-04-13T18:45:56.937Z,3.40
2023-04-13T18:48:28.642Z,4.50
2023-04-13T18:50:58.525Z,6.78
2023-04-13T18:53:27.069Z,4.90
2023-04-13T18:55:57.430Z,4.55
2023-04-13T18:58:27.294Z,4.55
2023-04-13T19:00:56.095Z,6.72
2023-04-13T19:03:24.541Z,5.18
2023-04-13T19:05:52.201Z,4.88
2023-04-13T19:08:20.812Z,9.43
2023-04-13T19:10:49.026Z,10.13
2023-04-13T19:13:17.533Z,9.90
2023-04-13T19:15:45.911Z,10.77
2023-04-13T19:18:14.390Z,7.75
2023-04-13T19:20:42.683Z,9.30
2023-04-13T19:23:11.392Z,13.30
2023-04-13T19:25:39.765Z,10.73
2023-04-13T19:28:08.158Z,11.88
2023-04-13T19:30:36.460Z,9.00
2023-04-13T19:33:11.198Z,8.57
2023-04-13T19:35:41.698Z,8.73
2023-04-13T19:38:11.905Z,8.90
2023-04-13T19:40:42.129Z,11.27
2023-04-13T19:43:12.245Z,9.82
2023-04-13T19:45:42.743Z,11.20
2023-04-13T19:48:13.006Z,10.70
2023-04-13T19:50:45.599Z,12.20
2023-04-13T19:53:16.033Z,13.88
2023-04-13T19:55:46.370Z,10.88
2023-04-13T19:58:14.574Z,10.35
2023-04-13T20:00:47.365Z,8.95
2023-04-13T20:03:20.608Z,12.02
2023-04-13T20:05:50.900Z,9.40
2023-04-13T20:08:21.174Z,12.25
2023-04-13T20:10:51.584Z,11.23
2023-04-13T20:13:21.790Z,11.95
2023-04-13T20:15:53.875Z,11.85
2023-04-13T20:18:24.195Z,10.45
2023-04-13T20:20:57.066Z,12.10
2023-04-13T20:23:32.516Z,10.40
2023-04-13T20:26:02.755Z,15.93
2023-04-13T20:28:36.466Z,14.15
2023-04-13T20:31:07.087Z,12.45
2023-04-13T20:33:37.227Z,12.70
2023-04-13T20:36:07.533Z,14.90
2023-04-13T20:38:38.638Z,14.75
2023-04-13T20:41:10.792Z,18.85
2023-04-13T20:43:42.236Z,15.75
2023-04-13T20:46:12.367Z,17.23
2023-04-13T20:51:23.306Z,15.35
2023-04-13T20:53:52.760Z,14.68
2023-04-13T20:56:23.906Z,15.77
2023-04-13T20:58:56.271Z,16.30
2023-04-13T21:01:26.515Z,16.75
2023-04-13T21:03:56.861Z,18.27
2023-04-13T21:06:29.264Z,15.55
2023-04-13T21:08:59.593Z,17.75
2023-04-13T21:11:29.805Z,15.18
2023-04-13T21:14:00.301Z,17.75
2023-04-13T21:16:30.776Z,18.63
2023-04-13T21:19:00.952Z,21.48
2023-04-13T21:21:32.954Z,13.38
2023-04-13T21:24:04.311Z,18.50
2023-04-13T21:26:34.478Z,12.93
2023-04-13T21:29:04.647Z,15.07
2023-04-13T21:31:35.209Z,15.98
2023-04-13T21:34:05.522Z,15.60
2023-04-13T21:39:08.858Z,19.83
2023-04-13T21:41:41.654Z,17.45
2023-04-13T21:44:26.038Z,16.42
2023-04-13T21:46:59.287Z,16.23
2023-04-13T21:49:29.520Z,15.90
2023-04-13T21:51:57.847Z,16.77
2023-04-13T21:54:26.237Z,15.18
2023-04-13T21:56:54.761Z,16.05
2023-04-13T21:59:27.323Z,13.02
2023-04-13T22:01:55.332Z,16.48
2023-04-13T22:04:23.222Z,11.80
2023-04-13T22:06:51.531Z,10.43
2023-04-13T22:09:20.246Z,11.07
2023-04-13T22:11:48.488Z,13.45
2023-04-13T22:14:16.588Z,11.70
2023-04-13T22:16:45.909Z,11.80
2023-04-13T22:19:17.379Z,12.43
2023-04-13T22:21:47.570Z,14.43
2023-04-13T22:24:17.717Z,13.68
2023-04-13T22:26:51.420Z,12.88
2023-04-13T22:29:21.859Z,8.93
2023-04-13T22:31:52.101Z,11.30
2023-04-13T22:34:22.881Z,8.32
2023-04-13T22:36:53.785Z,13.55
2023-04-13T22:39:23.989Z,11.90
2023-04-13T22:41:54.110Z,14.73
2023-04-13T22:44:24.355Z,9.38
2023-04-13T22:46:55.206Z,12.68
2023-04-13T22:49:32.253Z,8.70
2023-04-13T22:52:02.409Z,11.15
2023-04-13T22:54:32.637Z,10.30
2023-04-13T22:57:05.100Z,8.93
2023-04-13T22:59:38.785Z,8.82
2023-04-13T23:02:13.524Z,10.30
2023-04-13T23:04:47.115Z,9.25
2023-04-13T23:07:17.317Z,8.60
2023-04-13T23:09:49.044Z,11.98
2023-04-13T23:12:21.829Z,11.02
2023-04-13T23:14:55.224Z,10.27
2023-04-13T23:17:25.621Z,8.63
2023-04-13T23:19:56.545Z,10.05
2023-04-13T23:22:28.263Z,11.70
2023-04-13T23:25:03.028Z,9.75
2023-04-13T23:27:33.173Z,12.00
2023-04-13T23:30:05.912Z,11.80
2023-04-13T23:32:35.666Z,11.18
2023-04-13T23:35:13.513Z,12.35
2023-04-13T23:37:45.506Z,10.10
2023-04-13T23:40:17.510Z,13.05
2023-04-13T23:42:47.715Z,9.93
2023-04-13T23:45:18.190Z,12.35
2023-04-13T23:47:46.582Z,14.43
2023-04-13T23:50:17.981Z,10.13
2023-04-13T23:52:46.335Z,12.80
2023-04-13T23:55:17.366Z,14.07
2023-04-13T23:57:47.469Z,12.02
